Time;durP1;ratioP1;P1;durP2;ratioP2;P2;SDS_P1;SDS_P2;PMS_P1;PMS_P2;Temp;Humidity;BMP_temperature;BMP_pressure;BME280_temperature;BME280_humidity;BME280_pressure;Samples;Min_cycle;Max_cycle;Signal;HPM_P1;HPM_P2
2021/01/21 00:01:00;;;;;;;1.77;0.82;;;;;;;6.79;100.00;96324.53;5061355;28;20354;-81
2021/01/21 00:03:26;;;;;;;1.50;0.60;;;;;;;6.74;100.00;96315.84;5076351;28;20150;-81
2021/01/21 00:05:53;;;;;;;2.10;0.68;;;;;;;6.66;100.00;96311.28;5075350;28;20051;-82
2021/01/21 00:08:19;;;;;;;2.03;0.80;;;;;;;6.71;100.00;96309.22;5059343;28;20490;-82
2021/01/21 00:10:45;;;;;;;1.75;0.65;;;;;;;6.87;99.11;96312.16;5093273;28;20050;-81
2021/01/21 00:13:12;;;;;;;1.65;0.63;;;;;;;6.83;100.00;96305.88;5042327;28;20132;-82
2021/01/21 00:15:38;;;;;;;5.15;0.80;;;;;;;6.85;99.33;96309.00;5094171;28;20147;-81
2021/01/21 00:18:04;;;;;;;1.35;0.65;;;;;;;6.87;100.00;96310.25;5080850;28;20078;-81
2021/01/21 00:20:31;;;;;;;1.55;0.80;;;;;;;6.89;98.06;96307.28;5072462;28;20490;-81
2021/01/21 00:22:57;;;;;;;1.70;0.70;;;;;;;7.03;95.16;96299.75;5091713;28;20040;-80
2021/01/21 00:25:23;;;;;;;2.45;0.70;;;;;;;7.19;88.05;96295.41;5109591;28;20050;-80
2021/01/21 00:27:49;;;;;;;1.20;0.60;;;;;;;7.31;88.07;96289.28;5067015;28;20074;-81
2021/01/21 00:30:16;;;;;;;1.10;0.60;;;;;;;7.29;87.43;96292.31;5084590;28;20048;-81
2021/01/21 00:32:43;;;;;;;2.20;0.90;;;;;;;7.34;85.05;96283.25;5100863;28;20044;-81
2021/01/21 00:35:14;;;;;;;1.25;0.70;;;;;;;7.36;86.11;96281.03;5082232;28;20230;-82
2021/01/21 00:37:42;;;;;;;3.25;0.60;;;;;;;7.29;87.75;96286.94;5063999;28;20044;-81
2021/01/21 00:40:09;;;;;;;1.83;0.70;;;;;;;7.29;89.37;96295.00;5080717;28;20483;-81
2021/01/21 00:42:36;;;;;;;3.08;0.95;;;;;;;7.30;87.59;96296.56;5080071;28;20135;-81
2021/01/21 00:45:04;;;;;;;3.38;0.98;;;;;;;7.29;89.93;96291.53;5080038;28;20043;-81
2021/01/21 00:47:31;;;;;;;1.88;0.70;;;;;;;7.31;85.97;96292.78;5083647;28;20056;-80
2021/01/21 00:49:59;;;;;;;2.10;0.70;;;;;;;7.34;83.44;96270.59;5085480;28;20044;-81
2021/01/21 00:52:28;;;;;;;2.95;0.85;;;;;;;7.39;83.62;96288.44;5080190;28;20117;-82
2021/01/21 00:54:55;;;;;;;1.70;0.88;;;;;;;7.36;82.82;96283.72;5063887;28;20039;-82
2021/01/21 00:57:22;;;;;;;1.92;0.77;;;;;;;7.38;85.27;96276.88;5080350;28;20044;-81
2021/01/21 00:59:51;;;;;;;2.28;0.85;;;;;;;7.33;85.97;96274.38;5062286;28;20036;-80
2021/01/21 01:02:17;;;;;;;2.22;0.70;;;;;;;7.19;88.78;96268.47;5078861;28;20043;-81
2021/01/21 01:04:43;;;;;;;2.28;0.80;;;;;;;7.08;91.35;96267.28;5096342;28;20545;-81
2021/01/21 01:07:10;;;;;;;1.50;0.70;;;;;;;6.94;97.24;96265.94;5078761;28;20043;-81
2021/01/21 01:09:36;;;;;;;1.48;0.90;;;;;;;6.79;100.00;96267.25;5061787;28;20052;-81
2021/01/21 01:12:05;;;;;;;2.17;0.80;;;;;;;6.69;100.00;96262.25;5097303;28;20135;-81
2021/01/21 01:14:31;;;;;;;1.20;0.68;;;;;;;6.65;100.00;96251.38;5061784;28;20044;-81
2021/01/21 01:16:57;;;;;;;2.00;0.98;;;;;;;6.70;100.00;96236.94;5062336;28;20054;-81
2021/01/21 01:19:25;;;;;;;3.70;0.70;;;;;;;6.60;100.00;96246.19;5062209;28;20055;-81
2021/01/21 01:21:51;;;;;;;1.67;0.60;;;;;;;6.59;100.00;96241.09;5080666;28;20447;-81
2021/01/21 01:24:20;;;;;;;6.32;0.70;;;;;;;6.60;100.00;96238.09;5080462;28;20040;-80
2021/01/21 01:26:46;;;;;;;1.20;0.68;;;;;;;6.59;99.45;96224.97;5095673;28;20483;-81
2021/01/21 01:29:12;;;;;;;1.42;0.80;;;;;;;6.68;96.96;96237.28;5096046;28;20048;-80
2021/01/21 01:31:38;;;;;;;2.50;0.65;;;;;;;6.69;100.00;96241.53;5060389;28;20044;-82
2021/01/21 01:34:06;;;;;;;1.50;0.70;;;;;;;6.66;100.00;96227.94;5095000;28;20036;-81
2021/01/21 01:36:32;;;;;;;2.17;0.90;;;;;;;6.68;99.51;96236.50;5076280;28;20121;-80
2021/01/21 01:38:59;;;;;;;1.92;0.88;;;;;;;6.69;98.41;96217.34;5060667;28;20055;-81
2021/01/21 01:41:29;;;;;;;1.63;0.90;;;;;;;6.70;98.80;96226.97;5095400;28;20044;-80
2021/01/21 01:43:55;;;;;;;1.42;0.60;;;;;;;6.82;95.11;96218.22;5094694;28;20047;-80
2021/01/21 01:46:26;;;;;;;4.82;0.70;;;;;;;6.75;97.51;96207.97;5076264;28;20044;-80
2021/01/21 01:48:58;;;;;;;1.33;0.60;;;;;;;6.89;93.92;96213.88;5076032;28;20051;-80
2021/01/21 01:51:24;;;;;;;1.65;0.80;;;;;;;6.85;95.53;96206.81;5094578;28;20406;-81
2021/01/21 01:53:51;;;;;;;2.83;0.90;;;;;;;6.99;89.87;96211.94;5085495;28;20066;-80
2021/01/21 01:56:18;;;;;;;1.10;0.70;;;;;;;6.93;93.15;96194.41;5064735;28;20040;-81
2021/01/21 01:58:44;;;;;;;1.77;0.63;;;;;;;6.99;89.96;96191.22;5083332;28;20088;-81
2021/01/21 02:01:21;;;;;;;1.38;0.70;;;;;;;7.05;87.34;96184.53;5102393;28;20043;-81
2021/01/21 02:03:50;;;;;;;1.65;0.75;;;;;;;7.16;86.75;96195.69;5101203;28;20047;-82
2021/01/21 02:06:16;;;;;;;1.67;0.70;;;;;;;7.12;87.11;96179.44;5100305;28;20068;-82
2021/01/21 02:08:43;;;;;;;3.15;0.98;;;;;;;7.16;83.71;96185.72;5099903;28;20222;-81
2021/01/21 02:11:36;;;;;;;2.50;0.70;;;;;;;7.26;84.16;96187.22;5081240;28;20109;-81
2021/01/21 02:14:20;;;;;;;2.28;0.98;;;;;;;7.21;83.44;96180.13;5067922;28;20071;-82
2021/01/21 02:17:05;;;;;;;2.00;0.80;;;;;;;7.31;82.12;96195.09;5078458;28;20044;-82
2021/01/21 02:19:48;;;;;;;3.38;0.70;;;;;;;7.26;84.02;96185.31;5077781;28;20234;-82
2021/01/21 02:22:18;;;;;;;2.35;0.70;;;;;;;7.26;85.32;96192.59;5076872;28;20036;-80
2021/01/21 02:25:21;;;;;;;1.20;0.60;;;;;;;7.26;85.84;96189.91;5094066;28;20054;-81
2021/01/21 02:28:24;;;;;;;2.05;0.80;;;;;;;7.12;90.03;96186.69;5076819;28;20039;-81
2021/01/21 02:30:51;;;;;;;1.58;0.70;;;;;;;7.06;91.77;96174.56;5084752;28;20054;-81
2021/01/21 02:33:56;;;;;;;2.90;0.95;;;;;;;7.05;92.35;96191.78;5079550;28;20453;-81
2021/01/21 02:36:55;;;;;;;2.13;0.80;;;;;;;6.88;96.68;96158.53;5055596;28;20055;-81
2021/01/21 02:39:24;;;;;;;3.20;0.95;;;;;;;6.94;97.73;96177.97;5065682;28;20082;-81
2021/01/21 02:41:50;;;;;;;2.35;0.93;;;;;;;6.94;96.93;96161.81;5094967;28;20040;-80
2021/01/21 02:44:19;;;;;;;2.63;0.80;;;;;;;7.05;91.71;96165.69;5078283;28;20547;-81
2021/01/21 02:46:48;;;;;;;3.03;0.95;;;;;;;7.12;90.01;96168.66;5063012;28;20124;-81
2021/01/21 02:49:15;;;;;;;2.03;1.02;;;;;;;7.07;91.01;96165.38;5076217;28;20452;-81
2021/01/21 02:51:51;;;;;;;1.40;0.70;;;;;;;7.10;93.31;96170.09;5075762;28;20036;-81
2021/01/21 02:54:42;;;;;;;1.88;0.65;;;;;;;7.17;87.04;96163.09;5094455;28;20111;-80
2021/01/21 02:57:32;;;;;;;2.25;0.90;;;;;;;7.20;88.27;96162.41;5076186;28;20052;-81
2021/01/21 03:00:06;;;;;;;1.42;0.88;;;;;;;7.15;88.16;96151.06;5093150;28;20117;-80
2021/01/21 03:02:40;;;;;;;1.90;0.82;;;;;;;7.14;88.39;96161.03;5093304;28;20051;-81
2021/01/21 03:05:08;;;;;;;1.13;0.68;;;;;;;7.15;87.47;96154.53;5075211;28;20459;-80
2021/01/21 03:07:36;;;;;;;1.20;0.70;;;;;;;7.17;85.68;96162.28;5057617;28;20044;-82
2021/01/21 03:10:07;;;;;;;1.67;0.70;;;;;;;7.21;85.55;96150.53;5074258;28;20078;-80
2021/01/21 03:12:34;;;;;;;2.05;0.60;;;;;;;7.23;84.15;96153.69;5092452;28;20044;-79
2021/01/21 03:15:01;;;;;;;1.67;0.90;;;;;;;7.25;83.65;96154.13;5090587;28;20106;-81
2021/01/21 03:17:29;;;;;;;2.15;0.90;;;;;;;7.28;83.46;96158.84;5063288;28;20111;-79
2021/01/21 03:19:55;;;;;;;1.42;0.65;;;;;;;7.32;81.70;96164.38;5076660;28;20189;-81
2021/01/21 03:22:23;;;;;;;2.33;0.90;;;;;;;7.32;82.65;96154.41;5042564;28;20600;-80
2021/01/21 03:24:49;;;;;;;1.67;0.80;;;;;;;7.45;80.54;96164.13;5075639;28;20498;-81
2021/01/21 03:27:16;;;;;;;1.35;0.70;;;;;;;7.34;82.62;96143.28;5041753;28;20052;-80
2021/01/21 03:29:42;;;;;;;1.27;0.73;;;;;;;7.44;80.53;96157.13;5074980;28;20040;-80
2021/01/21 03:32:08;;;;;;;3.95;0.70;;;;;;;7.32;85.93;96157.09;5057605;28;20036;-80
2021/01/21 03:34:35;;;;;;;1.30;0.75;;;;;;;7.25;88.28;96156.06;5091766;28;20063;-81
2021/01/21 03:37:01;;;;;;;2.80;1.00;;;;;;;7.27;85.26;96153.81;5074022;28;20059;-79
2021/01/21 03:39:27;;;;;;;3.13;0.80;;;;;;;7.26;84.43;96136.88;5057731;28;20098;-81
2021/01/21 03:41:53;;;;;;;2.38;0.80;;;;;;;7.25;87.69;96147.97;5073571;28;20046;-80
2021/01/21 03:44:20;;;;;;;1.40;0.70;;;;;;;7.18;87.71;96131.56;5074812;28;20048;-80
2021/01/21 03:46:46;;;;;;;1.75;0.90;;;;;;;7.10;89.47;96143.97;5057517;28;20147;-80
2021/01/21 03:49:15;;;;;;;2.95;0.80;;;;;;;7.19;84.43;96142.00;5074234;28;20448;-81
2021/01/21 03:51:42;;;;;;;2.85;0.80;;;;;;;7.14;88.04;96141.41;5091858;28;20036;-81
2021/01/21 03:54:08;;;;;;;1.67;0.85;;;;;;;7.10;88.99;96162.78;5092779;28;20046;-80
2021/01/21 03:56:34;;;;;;;1.60;0.82;;;;;;;7.12;89.18;96160.59;5092912;28;20080;-81
2021/01/21 03:59:03;;;;;;;1.65;0.90;;;;;;;7.15;88.07;96161.84;5078663;28;20071;-81
2021/01/21 04:01:30;;;;;;;1.17;0.70;;;;;;;7.11;89.31;96158.22;5078931;28;20515;-81
2021/01/21 04:03:57;;;;;;;2.17;0.88;;;;;;;7.03;88.50;96154.47;5078438;28;20044;-78
2021/01/21 04:06:24;;;;;;;1.83;0.77;;;;;;;7.10;89.76;96164.72;5079320;28;20078;-80
2021/01/21 04:08:50;;;;;;;3.90;1.02;;;;;;;7.11;90.30;96160.91;5077884;28;20048;-79
2021/01/21 04:11:17;;;;;;;1.42;0.77;;;;;;;7.11;88.09;96167.06;5061671;28;20044;-81
2021/01/21 04:13:43;;;;;;;1.92;0.90;;;;;;;7.05;90.98;96164.88;5077242;28;20123;-79
2021/01/21 04:16:09;;;;;;;1.80;0.95;;;;;;;7.06;89.01;96163.78;5061027;28;20391;-81
2021/01/21 04:18:36;;;;;;;2.20;0.80;;;;;;;7.07;89.51;96158.06;5077921;28;20040;-80
2021/01/21 04:21:02;;;;;;;0.88;0.60;;;;;;;7.04;90.70;96145.28;5078387;28;20056;-79
2021/01/21 04:23:28;;;;;;;1.67;0.55;;;;;;;7.05;89.69;96146.06;5062208;28;20067;-80
2021/01/21 04:25:55;;;;;;;2.70;0.80;;;;;;;7.06;88.49;96151.13;5069977;22;20135;-78
2021/01/21 04:28:21;;;;;;;2.10;0.70;;;;;;;7.05;92.43;96146.06;5074725;28;20048;-76
2021/01/21 04:30:47;;;;;;;2.30;0.88;;;;;;;6.95;90.52;96147.25;5055461;28;20041;-77
2021/01/21 04:33:13;;;;;;;2.17;0.90;;;;;;;7.06;88.33;96150.34;5055771;28;20052;-77
2021/01/21 04:35:40;;;;;;;1.70;1.00;;;;;;;6.98;90.74;96157.34;5091333;28;20051;-78
2021/01/21 04:38:07;;;;;;;1.70;0.80;;;;;;;7.10;86.64;96156.66;5097707;28;20032;-79
2021/01/21 04:40:33;;;;;;;1.25;0.70;;;;;;;7.05;86.35;96146.06;5094758;28;20040;-77
2021/01/21 04:43:02;;;;;;;2.72;0.90;;;;;;;7.18;83.54;96161.94;5092418;28;20048;-78
2021/01/21 04:45:28;;;;;;;3.40;0.80;;;;;;;7.12;87.05;96157.91;5094167;28;20047;-78
2021/01/21 04:47:54;;;;;;;1.73;0.80;;;;;;;7.11;87.87;96158.22;5089814;28;20040;-76
2021/01/21 04:50:22;;;;;;;1.45;0.80;;;;;;;7.11;86.87;96155.53;5089478;28;20043;-77
2021/01/21 04:52:51;;;;;;;4.95;1.05;;;;;;;7.17;84.79;96160.38;5082564;28;20040;-77
2021/01/21 04:55:25;;;;;;;1.92;0.90;;;;;;;7.19;84.99;96157.34;5093230;28;20048;-78
2021/01/21 04:58:21;;;;;;;2.65;1.00;;;;;;;7.19;84.61;96144.69;5094709;28;20052;-78
2021/01/21 05:00:48;;;;;;;2.28;1.10;;;;;;;7.10;88.79;96143.19;5095772;28;20046;-77
2021/01/21 05:03:15;;;;;;;1.52;0.90;;;;;;;7.09;88.95;96139.72;5094435;28;20169;-78
2021/01/21 05:05:42;;;;;;;1.65;0.80;;;;;;;7.16;86.94;96134.59;5102194;28;20475;-79
2021/01/21 05:08:08;;;;;;;2.33;1.05;;;;;;;7.14;87.65;96118.00;5103437;28;20371;-77
2021/01/21 05:10:35;;;;;;;1.20;0.70;;;;;;;7.17;88.14;96124.63;5112550;28;20102;-74
2021/01/21 05:13:02;;;;;;;2.38;1.05;;;;;;;7.16;90.81;96126.50;5109165;28;20039;-80
2021/01/21 05:15:28;;;;;;;2.38;1.00;;;;;;;7.13;90.71;96121.78;5070379;28;20717;-78
2021/01/21 05:17:54;;;;;;;2.58;0.90;;;;;;;7.11;92.09;96109.78;5075441;28;20476;-78
2021/01/21 05:20:24;;;;;;;3.72;1.33;;;;;;;7.23;91.30;96118.69;5054812;28;20056;-77
2021/01/21 05:23:00;;;;;;;1.60;0.85;;;;;;;7.13;95.79;96110.22;5072949;28;20070;-80
2021/01/21 05:25:27;;;;;;;2.97;0.75;;;;;;;7.12;97.09;96111.38;5073331;28;20512;-79
2021/01/21 05:27:55;;;;;;;2.10;0.75;;;;;;;7.14;99.13;96101.84;5073295;28;20051;-80
2021/01/21 05:30:21;;;;;;;1.92;0.80;;;;;;;7.07;100.00;96095.44;5072497;28;20100;-78
2021/01/21 05:32:49;;;;;;;2.03;0.93;;;;;;;6.99;100.00;96107.03;5071535;28;20033;-76
2021/01/21 05:35:18;;;;;;;2.72;0.90;;;;;;;7.04;100.00;96104.16;5072104;28;20040;-77
2021/01/21 05:37:54;;;;;;;2.13;0.75;;;;;;;7.04;100.00;96104.94;5072056;28;20036;-79
2021/01/21 05:40:28;;;;;;;1.65;0.85;;;;;;;7.00;100.00;96100.53;5086719;28;20112;-77
2021/01/21 05:42:57;;;;;;;1.70;0.90;;;;;;;6.98;100.00;96100.88;5094696;28;20037;-77
2021/01/21 05:45:25;;;;;;;3.90;1.17;;;;;;;6.97;100.00;96109.28;5090649;28;20117;-77
2021/01/21 05:47:54;;;;;;;4.28;1.15;;;;;;;6.99;100.00;96090.91;5093094;28;20075;-78
2021/01/21 05:50:21;;;;;;;3.33;0.85;;;;;;;6.96;100.00;96086.97;5092832;28;20044;-78
2021/01/21 05:52:50;;;;;;;2.15;1.10;;;;;;;6.93;100.00;96074.16;5091284;28;20123;-78
2021/01/21 05:55:18;;;;;;;4.88;1.00;;;;;;;6.97;100.00;96077.75;5091803;28;20044;-78
2021/01/21 05:57:44;;;;;;;2.47;1.15;;;;;;;7.04;100.00;96085.31;5091825;28;20040;-78
2021/01/21 06:00:11;;;;;;;2.58;1.08;;;;;;;6.93;100.00;96079.56;5091671;28;20044;-76
2021/01/21 06:02:39;;;;;;;2.75;1.02;;;;;;;6.96;100.00;96076.22;5074228;28;20422;-76
2021/01/21 06:05:05;;;;;;;13.80;2.28;;;;;;;6.93;100.00;96070.69;5069498;28;20605;-75
2021/01/21 06:07:32;;;;;;;2.63;1.05;;;;;;;6.87;100.00;96067.41;5072330;28;20500;-76
2021/01/21 06:09:58;;;;;;;2.58;1.00;;;;;;;6.84;100.00;96062.69;5070990;28;20048;-79
2021/01/21 06:12:28;;;;;;;2.38;1.10;;;;;;;6.89;100.00;96065.19;5087163;28;20043;-76
2021/01/21 06:14:59;;;;;;;3.30;1.08;;;;;;;6.92;100.00;96066.44;5099761;28;20044;-78
2021/01/21 06:17:29;;;;;;;2.92;0.90;;;;;;;6.86;100.00;96072.00;5092271;28;20036;-78
2021/01/21 06:19:56;;;;;;;2.17;1.00;;;;;;;6.90;100.00;96075.63;5066570;28;20047;-79
2021/01/21 06:22:28;;;;;;;3.70;1.10;;;;;;;6.90;100.00;96064.06;5072154;28;20036;-76
2021/01/21 06:25:01;;;;;;;1.48;0.90;;;;;;;6.93;100.00;96065.31;5035788;28;20049;-79
2021/01/21 06:27:29;;;;;;;2.85;1.00;;;;;;;6.98;100.00;96057.03;5073016;28;20059;-79
2021/01/21 06:29:56;;;;;;;3.35;1.08;;;;;;;7.14;100.00;96047.25;5072482;28;20048;-78
2021/01/21 06:32:30;;;;;;;4.40;0.93;;;;;;;7.22;100.00;96052.56;5072243;28;20051;-79
2021/01/21 06:35:04;;;;;;;1.98;0.90;;;;;;;7.19;100.00;96038.97;5073449;28;20127;-79
2021/01/21 06:37:37;;;;;;;2.40;0.93;;;;;;;7.19;100.00;96039.75;5074350;28;20522;-79
2021/01/21 06:40:08;;;;;;;3.05;1.00;;;;;;;7.43;100.00;96045.19;5059093;28;20044;-76
2021/01/21 06:42:58;;;;;;;1.63;0.82;;;;;;;7.52;100.00;96043.19;5055911;28;20069;-77
2021/01/21 06:45:24;;;;;;;1.75;0.88;;;;;;;7.53;100.00;96058.25;5083326;28;20044;-77
2021/01/21 06:47:51;;;;;;;1.85;1.02;;;;;;;7.41;100.00;96052.81;5088805;28;20040;-78
2021/01/21 06:50:18;;;;;;;3.10;1.02;;;;;;;7.40;100.00;96053.16;5086586;28;20048;-79
2021/01/21 06:52:45;;;;;;;2.17;0.80;;;;;;;7.26;100.00;96066.91;5087520;28;20415;-77
2021/01/21 06:55:12;;;;;;;1.40;0.70;;;;;;;7.26;100.00;96071.50;5094923;28;20048;-77
2021/01/21 06:57:38;;;;;;;3.70;1.00;;;;;;;7.29;100.00;96068.94;5091090;28;20040;-78
2021/01/21 07:00:07;;;;;;;1.70;0.90;;;;;;;7.18;100.00;96048.94;5102911;28;20044;-77
2021/01/21 07:02:43;;;;;;;1.75;0.80;;;;;;;7.29;100.00;96068.94;5089465;28;20040;-76
2021/01/21 07:05:25;;;;;;;1.88;0.70;;;;;;;7.28;100.00;96050.41;5083406;28;20277;-79
2021/01/21 07:07:58;;;;;;;3.42;1.10;;;;;;;7.33;100.00;96077.91;5091809;28;20071;-78
2021/01/21 07:10:32;;;;;;;2.10;0.77;;;;;;;7.36;100.00;96088.00;5091532;28;20107;-78
2021/01/21 07:13:02;;;;;;;2.35;1.05;;;;;;;7.40;100.00;96082.75;5088050;28;20431;-77
2021/01/21 07:15:33;;;;;;;2.15;0.85;;;;;;;7.45;100.00;96082.56;5075087;28;20064;-76
2021/01/21 07:18:05;;;;;;;3.40;1.00;;;;;;;7.43;97.44;96079.41;5072016;28;20049;-77
2021/01/21 07:20:34;;;;;;;2.45;1.00;;;;;;;7.40;97.13;96080.06;5072460;28;20044;-78
2021/01/21 07:23:05;;;;;;;4.95;0.90;;;;;;;7.43;93.13;96069.41;5073240;28;20120;-78
2021/01/21 07:25:32;;;;;;;1.80;0.90;;;;;;;7.41;93.91;96071.66;5054506;28;20044;-79
2021/01/21 07:28:07;;;;;;;1.90;1.10;;;;;;;7.41;89.41;96063.56;5074423;28;20051;-78
2021/01/21 07:31:01;;;;;;;4.75;1.00;;;;;;;7.57;86.73;96071.00;5093085;28;20291;-80
2021/01/21 07:33:28;;;;;;;2.78;1.27;;;;;;;7.73;83.33;96077.34;5081452;28;20036;-78
2021/01/21 07:35:55;;;;;;;2.05;0.82;;;;;;;7.77;81.64;96049.41;5101842;28;20042;-75
2021/01/21 07:38:47;;;;;;;2.00;0.88;;;;;;;7.69;86.00;96054.91;5106249;28;20503;-76
2021/01/21 07:41:46;;;;;;;6.30;1.00;;;;;;;7.75;84.97;96053.53;5086957;28;20043;-76
2021/01/21 07:44:12;;;;;;;1.60;0.90;;;;;;;7.78;85.27;96053.66;5087650;28;20078;-75
2021/01/21 07:46:39;;;;;;;2.10;1.00;;;;;;;7.73;87.17;96061.97;5105655;28;20044;-75
2021/01/21 07:49:25;;;;;;;4.03;1.40;;;;;;;7.68;89.29;96059.50;5086868;28;20044;-76
2021/01/21 07:52:04;;;;;;;1.83;1.00;;;;;;;7.84;87.34;96046.16;5099901;28;20040;-77
2021/01/21 07:54:42;;;;;;;3.13;1.10;;;;;;;7.95;86.29;96052.66;5101708;28;20099;-76
2021/01/21 07:57:09;;;;;;;1.92;0.90;;;;;;;8.13;83.46;96059.41;5098350;28;20033;-74
2021/01/21 07:59:55;;;;;;;2.05;0.95;;;;;;;8.26;83.62;96055.56;5085259;28;20514;-75
2021/01/21 08:02:21;;;;;;;1.65;0.88;;;;;;;8.24;82.99;96057.84;5090307;28;20055;-78
2021/01/21 08:05:01;;;;;;;1.58;1.00;;;;;;;8.24;83.57;96055.13;5065834;28;20098;-76
2021/01/21 08:07:56;;;;;;;1.90;1.00;;;;;;;8.20;81.31;96048.84;5092481;28;20423;-77
2021/01/21 08:10:26;;;;;;;2.42;1.08;;;;;;;8.23;81.35;96056.28;5084014;28;20055;-77
2021/01/21 08:12:57;;;;;;;3.97;1.13;;;;;;;8.22;80.49;96065.47;5084711;28;20044;-76
2021/01/21 08:15:27;;;;;;;2.25;1.10;;;;;;;8.15;81.33;96067.94;5078606;28;20040;-75
2021/01/21 08:17:55;;;;;;;2.50;1.05;;;;;;;8.18;81.19;96074.56;5066040;28;20048;-78
2021/01/21 08:20:23;;;;;;;2.50;1.17;;;;;;;8.24;78.89;96081.28;5067211;28;20375;-76
2021/01/21 08:22:53;;;;;;;1.67;0.88;;;;;;;8.25;78.03;96072.09;5083728;28;20465;-77
2021/01/21 08:25:22;;;;;;;2.65;1.20;;;;;;;8.52;77.74;96080.31;5068839;28;20059;-77
2021/01/21 08:27:50;;;;;;;1.98;0.85;;;;;;;8.84;75.33;96094.75;5086491;28;20046;-77
2021/01/21 08:30:23;;;;;;;2.72;0.90;;;;;;;9.24;72.61;96094.72;5042252;28;20123;-78
2021/01/21 08:32:58;;;;;;;1.70;0.90;;;;;;;9.57;67.92;96089.88;5082275;28;20173;-78
2021/01/21 08:35:28;;;;;;;2.10;0.98;;;;;;;9.16;69.03;96084.88;5086450;28;20044;-79
2021/01/21 08:37:57;;;;;;;2.30;0.90;;;;;;;9.47;69.24;96068.78;5086304;28;20044;-81
2021/01/21 08:40:25;;;;;;;3.08;1.38;;;;;;;9.93;65.91;96078.06;5066434;28;20041;-77
2021/01/21 08:42:54;;;;;;;1.60;1.00;;;;;;;10.21;65.26;96062.56;5081086;28;20040;-79
2021/01/21 08:45:26;;;;;;;2.60;0.80;;;;;;;11.45;60.26;96060.56;5085952;28;20388;-77
2021/01/21 08:47:52;;;;;;;2.33;1.00;;;;;;;11.74;56.04;96048.38;5085929;28;20040;-77
2021/01/21 08:50:20;;;;;;;3.03;1.10;;;;;;;10.75;59.00;96053.72;5084264;28;20074;-79
2021/01/21 08:53:00;;;;;;;2.08;1.10;;;;;;;10.21;61.27;96050.94;5077359;28;20102;-78
2021/01/21 08:55:48;;;;;;;3.42;0.98;;;;;;;9.66;64.23;96063.47;5076348;28;20048;-76
2021/01/21 08:58:16;;;;;;;2.97;1.20;;;;;;;9.45;68.27;96057.50;5059630;28;20040;-76
2021/01/21 09:01:06;;;;;;;2.58;1.00;;;;;;;9.25;70.02;96066.59;5055553;28;20047;-78
2021/01/21 09:03:36;;;;;;;2.10;1.00;;;;;;;9.16;69.70;96072.16;5090416;28;20039;-76
2021/01/21 09:06:07;;;;;;;1.95;1.00;;;;;;;9.13;70.17;96080.97;5090434;28;20494;-75
2021/01/21 09:08:50;;;;;;;1.42;0.90;;;;;;;9.16;70.71;96076.78;5081953;28;20044;-77
2021/01/21 09:11:33;;;;;;;3.50;1.15;;;;;;;9.21;71.51;96081.94;5080563;28;20044;-78
2021/01/21 09:14:01;;;;;;;2.53;1.00;;;;;;;9.26;72.62;96073.59;5082504;28;20167;-77
2021/01/21 09:16:48;;;;;;;3.67;0.88;;;;;;;9.27;71.15;96075.94;5082116;28;20044;-81
2021/01/21 09:19:39;;;;;;;3.63;1.08;;;;;;;9.18;74.37;96077.22;5080289;28;20044;-80
2021/01/21 09:22:08;;;;;;;3.92;1.00;;;;;;;9.20;73.82;96093.84;5064863;28;20152;-79
2021/01/21 09:24:53;;;;;;;2.83;1.20;;;;;;;9.40;70.97;96098.25;5085974;28;20131;-76
2021/01/21 09:27:20;;;;;;;2.00;0.90;;;;;;;9.64;71.15;96091.97;5090334;28;20037;-76
2021/01/21 09:29:55;;;;;;;2.60;1.00;;;;;;;10.01;70.19;96107.59;5089091;28;20036;-78
2021/01/21 09:32:30;;;;;;;2.07;1.00;;;;;;;10.09;67.50;96097.00;5075567;28;20054;-73
2021/01/21 09:35:00;;;;;;;3.47;1.23;;;;;;;10.01;66.62;96091.38;5088865;28;20049;-76
2021/01/21 09:37:29;;;;;;;1.83;0.95;;;;;;;9.93;67.51;96100.47;5081943;28;20047;-76
2021/01/21 09:39:58;;;;;;;2.53;1.10;;;;;;;9.92;64.28;96108.91;5074973;28;20044;-80
2021/01/21 09:42:26;;;;;;;2.55;1.00;;;;;;;9.87;63.86;96109.16;5075058;28;20032;-79
2021/01/21 09:44:53;;;;;;;3.22;1.02;;;;;;;9.88;65.48;96108.81;5056030;28;20312;-78
2021/01/21 09:47:20;;;;;;;1.88;0.98;;;;;;;9.75;67.18;96098.44;5086652;28;20097;-78
2021/01/21 09:49:47;;;;;;;3.08;1.00;;;;;;;9.78;65.99;96109.31;5083657;28;20092;-78
2021/01/21 09:52:13;;;;;;;3.67;1.10;;;;;;;9.76;66.26;96108.09;5077173;28;20051;-76
2021/01/21 09:54:41;;;;;;;1.65;1.10;;;;;;;9.92;64.34;96098.91;5089198;28;20054;-78
2021/01/21 09:57:08;;;;;;;1.63;0.93;;;;;;;10.17;62.08;96086.00;5089610;28;20040;-77
2021/01/21 09:59:37;;;;;;;6.22;1.10;;;;;;;10.28;61.30;96072.75;5072935;28;20049;-77
2021/01/21 10:02:04;;;;;;;3.08;1.00;;;;;;;10.07;61.25;96069.50;5084422;28;20073;-79
2021/01/21 10:04:31;;;;;;;2.17;1.00;;;;;;;9.98;62.79;96078.59;5079411;28;20491;-81
2021/01/21 10:06:57;;;;;;;3.30;1.00;;;;;;;10.03;61.42;96069.44;5093778;28;20036;-76
2021/01/21 10:09:25;;;;;;;2.83;1.08;;;;;;;11.75;56.65;96060.75;5072557;28;20044;-76
2021/01/21 10:11:54;;;;;;;1.70;0.80;;;;;;;12.67;50.88;96054.88;5099551;28;20096;-76
2021/01/21 10:14:22;;;;;;;2.88;0.95;;;;;;;14.12;47.97;96070.94;5067909;28;20047;-77
2021/01/21 10:16:48;;;;;;;7.03;0.80;;;;;;;14.78;45.42;96067.22;5084823;28;20041;-78
2021/01/21 10:19:16;;;;;;;1.77;0.90;;;;;;;14.59;43.35;96059.28;5068353;28;20203;-76
2021/01/21 10:21:42;;;;;;;1.38;0.77;;;;;;;15.01;42.66;96033.47;5071051;28;20050;-77
2021/01/21 10:24:08;;;;;;;2.83;1.13;;;;;;;14.86;42.67;96059.88;5070963;28;20106;-79
2021/01/21 10:26:38;;;;;;;3.50;1.02;;;;;;;15.42;42.02;96051.16;5083197;22;20098;-77
2021/01/21 10:29:05;;;;;;;2.35;0.98;;;;;;;15.64;40.49;96060.25;5070365;28;20046;-76
2021/01/21 10:31:32;;;;;;;2.60;1.40;;;;;;;16.16;40.57;96056.81;5085520;22;20060;-77
2021/01/21 10:34:01;;;;;;;3.47;1.08;;;;;;;15.56;41.55;96062.16;5069971;28;20071;-78
2021/01/21 10:36:29;;;;;;;1.90;0.88;;;;;;;15.40;41.85;96059.75;5070645;28;20052;-78
2021/01/21 10:38:56;;;;;;;1.95;0.90;;;;;;;15.23;42.36;96062.38;5053399;28;20048;-79
2021/01/21 10:41:23;;;;;;;2.05;0.98;;;;;;;15.05;44.04;96075.13;5071612;28;20067;-78
2021/01/21 10:43:49;;;;;;;1.98;0.80;;;;;;;15.61;43.19;96059.06;5073284;28;20033;-77
2021/01/21 10:46:15;;;;;;;1.55;1.00;;;;;;;15.28;44.29;96051.88;5071609;28;20044;-76
2021/01/21 10:48:42;;;;;;;1.90;0.90;;;;;;;16.39;42.10;96065.41;5070587;28;20048;-76
2021/01/21 10:51:08;;;;;;;2.13;0.90;;;;;;;14.95;44.10;96063.81;5071738;28;20132;-77
2021/01/21 10:53:34;;;;;;;2.25;0.82;;;;;;;15.57;44.29;96064.50;5074404;28;20108;-78
2021/01/21 10:56:04;;;;;;;4.20;0.93;;;;;;;15.54;44.84;96057.09;5073181;28;20044;-78
2021/01/21 10:58:31;;;;;;;2.00;1.00;;;;;;;15.74;43.60;96063.00;5073792;28;20068;-78
2021/01/21 11:00:58;;;;;;;1.65;0.90;;;;;;;14.68;46.46;96061.69;5071371;28;20048;-78
2021/01/21 11:03:26;;;;;;;1.65;0.90;;;;;;;13.35;49.34;96059.28;5070874;28;20232;-76
2021/01/21 11:05:52;;;;;;;1.80;0.90;;;;;;;13.82;49.61;96064.06;5072693;28;20044;-77
2021/01/21 11:08:19;;;;;;;1.77;0.98;;;;;;;13.61;51.40;96072.78;5072643;28;20050;-77
2021/01/21 11:10:45;;;;;;;1.65;0.90;;;;;;;14.42;50.19;96059.19;5075925;28;20495;-77
2021/01/21 11:13:20;;;;;;;1.40;0.80;;;;;;;15.06;47.89;96068.53;5051923;28;20041;-79
2021/01/21 11:15:48;;;;;;;6.28;1.00;;;;;;;14.13;49.74;96060.84;5089547;28;20316;-77
2021/01/21 11:18:15;;;;;;;1.92;1.08;;;;;;;13.74;50.45;96055.03;5073779;28;20119;-77
2021/01/21 11:20:42;;;;;;;5.90;1.00;;;;;;;13.72;51.52;96051.94;5066217;28;20155;-79
2021/01/21 11:23:09;;;;;;;2.90;0.88;;;;;;;13.92;50.34;96063.38;5056495;28;20067;-77
2021/01/21 11:25:36;;;;;;;1.80;0.80;;;;;;;14.98;47.35;96073.16;5068276;28;20345;-78
2021/01/21 11:28:07;;;;;;;1.67;0.85;;;;;;;14.77;48.21;96070.31;5071593;28;20044;-78
2021/01/21 11:30:34;;;;;;;1.42;0.90;;;;;;;15.40;47.18;96072.59;5071669;28;20044;-78
2021/01/21 11:33:00;;;;;;;4.22;0.98;;;;;;;14.75;48.71;96062.53;5072167;28;20047;-78
2021/01/21 11:35:54;;;;;;;2.38;0.82;;;;;;;14.48;48.92;96069.31;5070039;28;20036;-79
2021/01/21 11:38:20;;;;;;;2.97;1.25;;;;;;;14.34;49.13;96058.34;5069859;28;20037;-78
2021/01/21 11:40:47;;;;;;;1.38;0.80;;;;;;;13.98;51.13;96061.88;5058670;28;20040;-80
2021/01/21 11:43:13;;;;;;;4.53;1.13;;;;;;;13.03;52.50;96058.88;5060518;28;20040;-75
2021/01/21 11:45:41;;;;;;;4.15;0.82;;;;;;;12.21;56.36;96054.19;5061887;28;20484;-77
2021/01/21 11:48:07;;;;;;;2.17;1.00;;;;;;;11.63;61.02;96055.47;5063145;28;20475;-78
2021/01/21 11:50:34;;;;;;;2.35;1.10;;;;;;;11.66;63.17;96058.25;5064467;28;20037;-78
2021/01/21 11:53:01;;;;;;;2.13;0.80;;;;;;;11.65;64.97;96047.78;5065359;28;20078;-78